sensor_id;sensor_type;location;lat;lon;timestamp;temperature;humidity
1179;DHT22;578;48.408;10.004;2024-01-30T00:01:14;-1.30;99.90
1179;DHT22;578;48.408;10.004;2024-01-30T00:03:16;-1.30;99.90
1179;DHT22;578;48.408;10.004;2024-01-30T00:05:18;-1.30;99.90
1179;DHT22;578;48.408;10.004;2024-01-30T00:07:21;-1.40;99.90
1179;DHT22;578;48.408;10.004;2024-01-30T00:09:22;-1.50;99.90
1179;DHT22;578;48.408;10.004;2024-01-30T00:11:24;-1.40;99.90
1179;DHT22;578;48.408;10.004;2024-01-30T00:13:26;-1.50;99.90
1179;DHT22;578;48.408;10.004;2024-01-30T00:15:28;-1.40;99.90
1179;DHT22;578;48.408;10.004;2024-01-30T00:17:30;-1.30;99.90
1179;DHT22;578;48.408;10.004;2024-01-30T00:19:31;-1.40;99.90
1179;DHT22;578;48.408;10.004;2024-01-30T00:21:33;-1.30;99.90
1179;DHT22;578;48.408;10.004;2024-01-30T00:23:36;-1.40;99.90
1179;DHT22;578;48.408;10.004;2024-01-30T00:25:38;-1.50;99.90
1179;DHT22;578;48.408;10.004;2024-01-30T00:27:39;-1.50;99.90
1179;DHT22;578;48.408;10.004;2024-01-30T00:29:40;-1.50;99.90
1179;DHT22;578;48.408;10.004;2024-01-30T00:31:42;-1.60;99.90
1179;DHT22;578;48.408;10.004;2024-01-30T00:33:44;-1.70;99.90
1179;DHT22;578;48.408;10.004;2024-01-30T00:35:45;-1.60;99.90
1179;DHT22;578;48.408;10.004;2024-01-30T00:37:47;-1.50;99.90
1179;DHT22;578;48.408;10.004;2024-01-30T00:39:49;-1.60;99.90
1179;DHT22;578;48.408;10.004;2024-01-30T00:41:51;-1.80;99.90
1179;DHT22;578;48.408;10.004;2024-01-30T00:43:53;-1.80;99.90
1179;DHT22;578;48.408;10.004;2024-01-30T00:45:55;-1.90;99.90
1179;DHT22;578;48.408;10.004;2024-01-30T00:47:56;-1.70;99.90
1179;DHT22;578;48.408;10.004;2024-01-30T00:49:58;-1.70;99.90
1179;DHT22;578;48.408;10.004;2024-01-30T00:52:00;-1.70;99.90
1179;DHT22;578;48.408;10.004;2024-01-30T00:54:02;-1.80;99.90
1179;DHT22;578;48.408;10.004;2024-01-30T00:56:06;-1.70;99.90
1179;DHT22;578;48.408;10.004;2024-01-30T00:58:08;-1.90;99.90
1179;DHT22;578;48.408;10.004;2024-01-30T01:00:11;-1.80;99.90
1179;DHT22;578;48.408;10.004;2024-01-30T01:02:13;-1.70;99.90
1179;DHT22;578;48.408;10.004;2024-01-30T01:04:15;-1.80;99.90
1179;DHT22;578;48.408;10.004;2024-01-30T01:06:18;-1.90;99.90
1179;DHT22;578;48.408;10.004;2024-01-30T01:08:18;-1.90;99.90
1179;DHT22;578;48.408;10.004;2024-01-30T01:10:20;-2.00;99.90
1179;DHT22;578;48.408;10.004;2024-01-30T01:12:24;-1.90;99.90
1179;DHT22;578;48.408;10.004;2024-01-30T01:14:25;-1.90;99.90
1179;DHT22;578;48.408;10.004;2024-01-30T01:16:27;-1.80;99.90
1179;DHT22;578;48.408;10.004;2024-01-30T01:18:29;-1.80;99.90
1179;DHT22;578;48.408;10.004;2024-01-30T01:20:30;-1.80;99.90
1179;DHT22;578;48.408;10.004;2024-01-30T01:22:31;-1.80;99.90
1179;DHT22;578;48.408;10.004;2024-01-30T01:24:33;-1.90;99.90
1179;DHT22;578;48.408;10.004;2024-01-30T01:26:35;-1.90;99.90
1179;DHT22;578;48.408;10.004;2024-01-30T01:28:39;-1.90;99.90
1179;DHT22;578;48.408;10.004;2024-01-30T01:30:41;-1.90;99.90
1179;DHT22;578;48.408;10.004;2024-01-30T01:32:42;-1.90;99.90
1179;DHT22;578;48.408;10.004;2024-01-30T01:34:50;-1.90;99.90
1179;DHT22;578;48.408;10.004;2024-01-30T01:36:52;-2.00;99.90
1179;DHT22;578;48.408;10.004;2024-01-30T01:38:55;-1.90;99.90
1179;DHT22;578;48.408;10.004;2024-01-30T01:40:57;-1.90;99.90
1179;DHT22;578;48.408;10.004;2024-01-30T01:43:02;-1.80;99.90
1179;DHT22;578;48.408;10.004;2024-01-30T01:45:07;-1.90;99.90
1179;DHT22;578;48.408;10.004;2024-01-30T01:47:09;-1.90;99.90
1179;DHT22;578;48.408;10.004;2024-01-30T01:49:12;-1.90;99.90
1179;DHT22;578;48.408;10.004;2024-01-30T01:51:14;-2.00;99.90
1179;DHT22;578;48.408;10.004;2024-01-30T01:53:17;-2.00;99.90
1179;DHT22;578;48.408;10.004;2024-01-30T01:55:20;-2.10;99.90
1179;DHT22;578;48.408;10.004;2024-01-30T01:57:22;-2.00;99.90
1179;DHT22;578;48.408;10.004;2024-01-30T01:59:25;-2.00;99.90
1179;DHT22;578;48.408;10.004;2024-01-30T02:01:29;-2.00;99.90
1179;DHT22;578;48.408;10.004;2024-01-30T02:03:31;-2.00;99.90
1179;DHT22;578;48.408;10.004;2024-01-30T02:05:32;-1.90;99.90
1179;DHT22;578;48.408;10.004;2024-01-30T02:07:34;-2.00;99.90
1179;DHT22;578;48.408;10.004;2024-01-30T02:09:35;-2.10;99.90
1179;DHT22;578;48.408;10.004;2024-01-30T02:11:37;-2.20;99.90
1179;DHT22;578;48.408;10.004;2024-01-30T02:13:41;-2.10;99.90
1179;DHT22;578;48.408;10.004;2024-01-30T02:15:42;-2.10;99.90
1179;DHT22;578;48.408;10.004;2024-01-30T02:17:45;-2.00;99.90
1179;DHT22;578;48.408;10.004;2024-01-30T02:19:47;-2.00;99.90
1179;DHT22;578;48.408;10.004;2024-01-30T02:21:50;-2.00;99.90
1179;DHT22;578;48.408;10.004;2024-01-30T02:23:53;-2.00;99.90
1179;DHT22;578;48.408;10.004;2024-01-30T02:25:56;-2.00;99.90
1179;DHT22;578;48.408;10.004;2024-01-30T02:27:57;-2.10;99.90
1179;DHT22;578;48.408;10.004;2024-01-30T02:29:59;-2.00;99.90
1179;DHT22;578;48.408;10.004;2024-01-30T02:32:01;-2.00;99.90
1179;DHT22;578;48.408;10.004;2024-01-30T02:34:03;-2.00;99.90
1179;DHT22;578;48.408;10.004;2024-01-30T02:36:05;-2.00;99.90
1179;DHT22;578;48.408;10.004;2024-01-30T02:38:08;-2.00;99.90
1179;DHT22;578;48.408;10.004;2024-01-30T02:40:10;-2.00;99.90
1179;DHT22;578;48.408;10.004;2024-01-30T02:42:12;-2.00;99.90
1179;DHT22;578;48.408;10.004;2024-01-30T02:44:13;-1.90;99.90
1179;DHT22;578;48.408;10.004;2024-01-30T02:46:15;-1.90;99.90
1179;DHT22;578;48.408;10.004;2024-01-30T02:48:17;-2.00;99.90
1179;DHT22;578;48.408;10.004;2024-01-30T02:50:19;-2.00;99.90
1179;DHT22;578;48.408;10.004;2024-01-30T02:52:20;-2.00;99.90
1179;DHT22;578;48.408;10.004;2024-01-30T02:54:23;-1.90;99.90
1179;DHT22;578;48.408;10.004;2024-01-30T02:56:25;-1.90;99.90
1179;DHT22;578;48.408;10.004;2024-01-30T02:58:26;-2.00;99.90
1179;DHT22;578;48.408;10.004;2024-01-30T03:00:28;-2.00;99.90
1179;DHT22;578;48.408;10.004;2024-01-30T03:02:30;-2.00;99.90
1179;DHT22;578;48.408;10.004;2024-01-30T03:04:32;-2.10;99.90
1179;DHT22;578;48.408;10.004;2024-01-30T03:06:33;-2.00;99.90
1179;DHT22;578;48.408;10.004;2024-01-30T03:08:35;-2.00;99.90
1179;DHT22;578;48.408;10.004;2024-01-30T03:10:39;-2.00;99.90
1179;DHT22;578;48.408;10.004;2024-01-30T03:12:41;-2.00;99.90
1179;DHT22;578;48.408;10.004;2024-01-30T03:14:42;-2.00;99.90
1179;DHT22;578;48.408;10.004;2024-01-30T03:16:44;-2.00;99.90
1179;DHT22;578;48.408;10.004;2024-01-30T03:18:46;-2.00;99.90
1179;DHT22;578;48.408;10.004;2024-01-30T03:20:48;-2.10;99.90
1179;DHT22;578;48.408;10.004;2024-01-30T03:22:51;-2.10;99.90
1179;DHT22;578;48.408;10.004;2024-01-30T03:24:52;-2.20;99.90
1179;DHT22;578;48.408;10.004;2024-01-30T03:26:55;-2.10;99.90
1179;DHT22;578;48.408;10.004;2024-01-30T03:28:57;-2.10;99.90
1179;DHT22;578;48.408;10.004;2024-01-30T03:30:59;-2.20;99.90
1179;DHT22;578;48.408;10.004;2024-01-30T03:33:01;-2.30;99.90
1179;DHT22;578;48.408;10.004;2024-01-30T03:35:03;-2.20;99.90
1179;DHT22;578;48.408;10.004;2024-01-30T03:37:04;-2.20;99.90
1179;DHT22;578;48.408;10.004;2024-01-30T03:39:06;-2.20;99.90
1179;DHT22;578;48.408;10.004;2024-01-30T03:41:08;-2.20;99.90
1179;DHT22;578;48.408;10.004;2024-01-30T03:43:11;-2.30;99.90
1179;DHT22;578;48.408;10.004;2024-01-30T03:45:13;-2.30;99.90
1179;DHT22;578;48.408;10.004;2024-01-30T03:47:15;-2.30;99.90
1179;DHT22;578;48.408;10.004;2024-01-30T03:49:17;-2.30;99.90
1179;DHT22;578;48.408;10.004;2024-01-30T03:51:18;-2.30;99.90
1179;DHT22;578;48.408;10.004;2024-01-30T03:53:20;-2.30;99.90
1179;DHT22;578;48.408;10.004;2024-01-30T03:55:22;-2.30;99.90
1179;DHT22;578;48.408;10.004;2024-01-30T03:57:24;-2.30;99.90
1179;DHT22;578;48.408;10.004;2024-01-30T03:59:27;-2.30;99.90
1179;DHT22;578;48.408;10.004;2024-01-30T04:01:28;-2.20;99.90
1179;DHT22;578;48.408;10.004;2024-01-30T04:03:30;-2.30;99.90
1179;DHT22;578;48.408;10.004;2024-01-30T04:05:31;-2.30;99.90
1179;DHT22;578;48.408;10.004;2024-01-30T04:07:33;-2.30;99.90
1179;DHT22;578;48.408;10.004;2024-01-30T04:09:35;-2.40;99.90
1179;DHT22;578;48.408;10.004;2024-01-30T04:11:37;-2.40;99.90
1179;DHT22;578;48.408;10.004;2024-01-30T04:13:38;-2.30;99.90
1179;DHT22;578;48.408;10.004;2024-01-30T04:15:41;-2.30;99.90
1179;DHT22;578;48.408;10.004;2024-01-30T04:17:43;-2.30;99.90
1179;DHT22;578;48.408;10.004;2024-01-30T04:19:45;-2.40;99.90
1179;DHT22;578;48.408;10.004;2024-01-30T04:21:47;-2.40;99.90
1179;DHT22;578;48.408;10.004;2024-01-30T04:23:50;-2.40;99.90
1179;DHT22;578;48.408;10.004;2024-01-30T04:25:52;-2.40;99.90
1179;DHT22;578;48.408;10.004;2024-01-30T04:27:53;-2.40;99.90
1179;DHT22;578;48.408;10.004;2024-01-30T04:29:55;-2.40;99.90
1179;DHT22;578;48.408;10.004;2024-01-30T04:31:59;-2.40;99.90
1179;DHT22;578;48.408;10.004;2024-01-30T04:34:00;-2.40;99.90
1179;DHT22;578;48.408;10.004;2024-01-30T04:36:03;-2.40;99.90
1179;DHT22;578;48.408;10.004;2024-01-30T04:38:05;-2.30;99.90
1179;DHT22;578;48.408;10.004;2024-01-30T04:40:07;-2.30;99.90
1179;DHT22;578;48.408;10.004;2024-01-30T04:42:08;-2.40;99.90
1179;DHT22;578;48.408;10.004;2024-01-30T04:44:10;-2.30;99.90
1179;DHT22;578;48.408;10.004;2024-01-30T04:46:12;-2.40;99.90
1179;DHT22;578;48.408;10.004;2024-01-30T04:48:15;-2.40;99.90
1179;DHT22;578;48.408;10.004;2024-01-30T04:50:16;-2.40;99.90
1179;DHT22;578;48.408;10.004;2024-01-30T04:52:18;-2.40;99.90
1179;DHT22;578;48.408;10.004;2024-01-30T04:54:19;-2.40;99.90
1179;DHT22;578;48.408;10.004;2024-01-30T04:56:21;-2.40;99.90
1179;DHT22;578;48.408;10.004;2024-01-30T04:58:23;-2.40;99.90
1179;DHT22;578;48.408;10.004;2024-01-30T05:00:25;-2.40;99.90
1179;DHT22;578;48.408;10.004;2024-01-30T05:02:27;-2.40;99.90
1179;DHT22;578;48.408;10.004;2024-01-30T05:04:30;-2.40;99.90
1179;DHT22;578;48.408;10.004;2024-01-30T05:06:32;-2.40;99.90
1179;DHT22;578;48.408;10.004;2024-01-30T05:08:33;-2.50;99.90
1179;DHT22;578;48.408;10.004;2024-01-30T05:10:37;-2.50;99.90
1179;DHT22;578;48.408;10.004;2024-01-30T05:12:38;-2.50;99.90
1179;DHT22;578;48.408;10.004;2024-01-30T05:14:40;-2.50;99.90
1179;DHT22;578;48.408;10.004;2024-01-30T05:16:42;-2.60;99.90
1179;DHT22;578;48.408;10.004;2024-01-30T05:18:47;-2.60;99.90
1179;DHT22;578;48.408;10.004;2024-01-30T05:20:50;-2.70;99.90
1179;DHT22;578;48.408;10.004;2024-01-30T05:22:52;-2.70;99.90
1179;DHT22;578;48.408;10.004;2024-01-30T05:24:54;-2.70;99.90
1179;DHT22;578;48.408;10.004;2024-01-30T05:26:55;-2.80;99.90
1179;DHT22;578;48.408;10.004;2024-01-30T05:28:56;-2.70;99.90
1179;DHT22;578;48.408;10.004;2024-01-30T05:30:58;-2.80;99.90
1179;DHT22;578;48.408;10.004;2024-01-30T05:33:00;-2.80;99.90
1179;DHT22;578;48.408;10.004;2024-01-30T05:35:02;-2.90;99.90
1179;DHT22;578;48.408;10.004;2024-01-30T05:37:05;-2.90;99.90
1179;DHT22;578;48.408;10.004;2024-01-30T05:39:07;-2.90;99.90
1179;DHT22;578;48.408;10.004;2024-01-30T05:41:09;-2.80;99.90
1179;DHT22;578;48.408;10.004;2024-01-30T05:43:11;-2.80;99.90
1179;DHT22;578;48.408;10.004;2024-01-30T05:45:13;-2.80;99.90
1179;DHT22;578;48.408;10.004;2024-01-30T05:47:14;-2.80;99.90
1179;DHT22;578;48.408;10.004;2024-01-30T05:49:17;-2.80;99.90
1179;DHT22;578;48.408;10.004;2024-01-30T05:51:18;-2.90;99.90
1179;DHT22;578;48.408;10.004;2024-01-30T05:53:21;-2.90;99.90
1179;DHT22;578;48.408;10.004;2024-01-30T05:55:23;-3.00;99.90
1179;DHT22;578;48.408;10.004;2024-01-30T05:57:25;-2.90;99.90
1179;DHT22;578;48.408;10.004;2024-01-30T05:59:27;-2.90;99.90
1179;DHT22;578;48.408;10.004;2024-01-30T06:01:28;-2.80;99.90
1179;DHT22;578;48.408;10.004;2024-01-30T06:03:30;-2.80;99.90
1179;DHT22;578;48.408;10.004;2024-01-30T06:05:32;-2.90;99.90
1179;DHT22;578;48.408;10.004;2024-01-30T06:07:34;-2.90;99.90
1179;DHT22;578;48.408;10.004;2024-01-30T06:09:37;-2.90;99.90
1179;DHT22;578;48.408;10.004;2024-01-30T06:11:38;-3.00;99.90
1179;DHT22;578;48.408;10.004;2024-01-30T06:13:40;-3.00;99.90
1179;DHT22;578;48.408;10.004;2024-01-30T06:15:42;-3.00;99.90
1179;DHT22;578;48.408;10.004;2024-01-30T06:17:44;-3.00;99.90
1179;DHT22;578;48.408;10.004;2024-01-30T06:19:46;-2.90;99.90
1179;DHT22;578;48.408;10.004;2024-01-30T06:21:47;-3.00;99.90
1179;DHT22;578;48.408;10.004;2024-01-30T06:23:49;-3.00;99.90
1179;DHT22;578;48.408;10.004;2024-01-30T06:25:51;-3.00;99.90
1179;DHT22;578;48.408;10.004;2024-01-30T06:27:53;-3.00;99.90
1179;DHT22;578;48.408;10.004;2024-01-30T06:29:55;-2.90;99.90
1179;DHT22;578;48.408;10.004;2024-01-30T06:31:57;-2.80;99.90
1179;DHT22;578;48.408;10.004;2024-01-30T06:33:59;-2.90;99.90
1179;DHT22;578;48.408;10.004;2024-01-30T06:36:00;-2.80;99.90
1179;DHT22;578;48.408;10.004;2024-01-30T06:38:02;-2.80;99.90
1179;DHT22;578;48.408;10.004;2024-01-30T06:40:05;-2.80;99.90
1179;DHT22;578;48.408;10.004;2024-01-30T06:42:10;-2.80;99.90
1179;DHT22;578;48.408;10.004;2024-01-30T06:44:12;-2.80;99.90
1179;DHT22;578;48.408;10.004;2024-01-30T06:46:14;-2.80;99.90
1179;DHT22;578;48.408;10.004;2024-01-30T06:48:16;-2.80;99.90
1179;DHT22;578;48.408;10.004;2024-01-30T06:50:17;-2.80;99.90
1179;DHT22;578;48.408;10.004;2024-01-30T06:52:19;-2.80;99.90
1179;DHT22;578;48.408;10.004;2024-01-30T06:54:21;-2.80;99.90
1179;DHT22;578;48.408;10.004;2024-01-30T06:56:23;-2.70;99.90
1179;DHT22;578;48.408;10.004;2024-01-30T06:58:26;-2.60;99.90
1179;DHT22;578;48.408;10.004;2024-01-30T07:00:28;-2.60;99.90
1179;DHT22;578;48.408;10.004;2024-01-30T07:02:29;-2.60;99.90
1179;DHT22;578;48.408;10.004;2024-01-30T07:04:31;-2.60;99.90
1179;DHT22;578;48.408;10.004;2024-01-30T07:06:33;-2.60;99.90
1179;DHT22;578;48.408;10.004;2024-01-30T07:08:35;-2.50;99.90
1179;DHT22;578;48.408;10.004;2024-01-30T07:10:37;-2.40;99.90
1179;DHT22;578;48.408;10.004;2024-01-30T07:12:39;-2.50;99.90
1179;DHT22;578;48.408;10.004;2024-01-30T07:14:42;-2.40;99.90
1179;DHT22;578;48.408;10.004;2024-01-30T07:16:44;-2.40;99.90
1179;DHT22;578;48.408;10.004;2024-01-30T07:18:46;-2.30;99.90
1179;DHT22;578;48.408;10.004;2024-01-30T07:20:48;-2.20;99.90
1179;DHT22;578;48.408;10.004;2024-01-30T07:22:50;-2.20;99.90
1179;DHT22;578;48.408;10.004;2024-01-30T07:24:52;-2.10;99.90
1179;DHT22;578;48.408;10.004;2024-01-30T07:26:54;-2.10;99.90
1179;DHT22;578;48.408;10.004;2024-01-30T07:28:55;-2.10;99.90
1179;DHT22;578;48.408;10.004;2024-01-30T07:30:58;-2.10;99.90
1179;DHT22;578;48.408;10.004;2024-01-30T07:33:00;-2.00;99.90
1179;DHT22;578;48.408;10.004;2024-01-30T07:35:03;-2.00;99.90
1179;DHT22;578;48.408;10.004;2024-01-30T07:37:05;-1.90;99.90
1179;DHT22;578;48.408;10.004;2024-01-30T07:39:08;-1.80;99.90
1179;DHT22;578;48.408;10.004;2024-01-30T07:41:11;-1.70;99.90
1179;DHT22;578;48.408;10.004;2024-01-30T07:43:12;-1.60;99.90
1179;DHT22;578;48.408;10.004;2024-01-30T07:45:14;-1.50;99.90
1179;DHT22;578;48.408;10.004;2024-01-30T07:47:16;-1.50;99.90
1179;DHT22;578;48.408;10.004;2024-01-30T07:49:18;-1.40;99.90
1179;DHT22;578;48.408;10.004;2024-01-30T07:51:20;-1.30;99.90
1179;DHT22;578;48.408;10.004;2024-01-30T07:53:22;-1.30;99.90
1179;DHT22;578;48.408;10.004;2024-01-30T07:55:23;-1.20;99.90
1179;DHT22;578;48.408;10.004;2024-01-30T07:57:27;-1.10;99.90
1179;DHT22;578;48.408;10.004;2024-01-30T07:59:29;-1.00;99.90
1179;DHT22;578;48.408;10.004;2024-01-30T08:01:31;-0.70;99.90
1179;DHT22;578;48.408;10.004;2024-01-30T08:03:34;-0.50;99.90
1179;DHT22;578;48.408;10.004;2024-01-30T08:05:38;-0.30;99.90
1179;DHT22;578;48.408;10.004;2024-01-30T08:07:40;-0.10;99.90
1179;DHT22;578;48.408;10.004;2024-01-30T08:09:42;0.10;99.90
1179;DHT22;578;48.408;10.004;2024-01-30T08:11:44;0.30;99.90
1179;DHT22;578;48.408;10.004;2024-01-30T08:13:45;0.80;99.90
1179;DHT22;578;48.408;10.004;2024-01-30T08:15:47;1.10;99.90
1179;DHT22;578;48.408;10.004;2024-01-30T08:17:49;1.30;99.90
1179;DHT22;578;48.408;10.004;2024-01-30T08:19:51;1.70;99.90
1179;DHT22;578;48.408;10.004;2024-01-30T08:21:53;1.60;99.90
1179;DHT22;578;48.408;10.004;2024-01-30T08:23:56;1.80;99.90
1179;DHT22;578;48.408;10.004;2024-01-30T08:25:58;2.10;99.90
1179;DHT22;578;48.408;10.004;2024-01-30T08:27:59;2.20;99.90
1179;DHT22;578;48.408;10.004;2024-01-30T08:30:01;2.30;99.90
1179;DHT22;578;48.408;10.004;2024-01-30T08:32:03;2.50;99.90
1179;DHT22;578;48.408;10.004;2024-01-30T08:34:05;2.60;99.90
1179;DHT22;578;48.408;10.004;2024-01-30T08:36:08;2.60;99.90
1179;DHT22;578;48.408;10.004;2024-01-30T08:38:10;2.70;99.90
1179;DHT22;578;48.408;10.004;2024-01-30T08:40:13;2.70;99.90
1179;DHT22;578;48.408;10.004;2024-01-30T08:42:15;2.80;99.90
1179;DHT22;578;48.408;10.004;2024-01-30T08:44:19;2.90;99.90
1179;DHT22;578;48.408;10.004;2024-01-30T08:46:21;3.10;99.90
1179;DHT22;578;48.408;10.004;2024-01-30T08:48:23;3.10;99.90
1179;DHT22;578;48.408;10.004;2024-01-30T08:50:23;3.10;99.90
1179;DHT22;578;48.408;10.004;2024-01-30T08:52:26;3.00;99.90
1179;DHT22;578;48.408;10.004;2024-01-30T08:54:28;3.10;99.90
1179;DHT22;578;48.408;10.004;2024-01-30T08:56:30;3.10;99.90
1179;DHT22;578;48.408;10.004;2024-01-30T08:58:32;3.20;99.90
1179;DHT22;578;48.408;10.004;2024-01-30T09:00:33;3.20;99.90
1179;DHT22;578;48.408;10.004;2024-01-30T09:02:35;3.20;99.90
1179;DHT22;578;48.408;10.004;2024-01-30T09:04:37;3.30;99.90
1179;DHT22;578;48.408;10.004;2024-01-30T09:06:39;3.40;99.90
1179;DHT22;578;48.408;10.004;2024-01-30T09:08:42;3.60;99.90
1179;DHT22;578;48.408;10.004;2024-01-30T09:10:44;3.70;99.90
1179;DHT22;578;48.408;10.004;2024-01-30T09:12:46;3.80;99.90
1179;DHT22;578;48.408;10.004;2024-01-30T09:14:47;3.90;99.90
1179;DHT22;578;48.408;10.004;2024-01-30T09:16:48;4.10;99.90
1179;DHT22;578;48.408;10.004;2024-01-30T09:18:50;4.10;99.90
1179;DHT22;578;48.408;10.004;2024-01-30T09:20:52;4.10;99.90
1179;DHT22;578;48.408;10.004;2024-01-30T09:22:53;4.00;99.90
1179;DHT22;578;48.408;10.004;2024-01-30T09:24:57;3.90;99.90
1179;DHT22;578;48.408;10.004;2024-01-30T09:26:59;4.00;99.90
1179;DHT22;578;48.408;10.004;2024-01-30T09:29:06;4.00;99.90
1179;DHT22;578;48.408;10.004;2024-01-30T09:31:09;4.10;99.90
1179;DHT22;578;48.408;10.004;2024-01-30T09:33:10;4.20;99.90
1179;DHT22;578;48.408;10.004;2024-01-30T09:35:12;4.20;99.90
1179;DHT22;578;48.408;10.004;2024-01-30T09:37:14;4.20;99.90
1179;DHT22;578;48.408;10.004;2024-01-30T09:39:17;4.30;99.90
1179;DHT22;578;48.408;10.004;2024-01-30T09:41:23;4.20;99.90
1179;DHT22;578;48.408;10.004;2024-01-30T09:43:26;4.10;99.90
1179;DHT22;578;48.408;10.004;2024-01-30T09:45:30;4.10;99.90
1179;DHT22;578;48.408;10.004;2024-01-30T09:47:39;4.20;99.90
1179;DHT22;578;48.408;10.004;2024-01-30T09:49:42;4.30;99.90
1179;DHT22;578;48.408;10.004;2024-01-30T09:51:45;4.40;99.90
1179;DHT22;578;48.408;10.004;2024-01-30T09:53:47;4.40;99.90
1179;DHT22;578;48.408;10.004;2024-01-30T09:55:50;4.50;99.90
1179;DHT22;578;48.408;10.004;2024-01-30T09:57:53;4.60;99.90
1179;DHT22;578;48.408;10.004;2024-01-30T09:59:55;4.60;99.90
1179;DHT22;578;48.408;10.004;2024-01-30T10:01:56;4.70;99.90
1179;DHT22;578;48.408;10.004;2024-01-30T10:03:58;4.70;99.90
1179;DHT22;578;48.408;10.004;2024-01-30T10:06:01;4.80;99.90
1179;DHT22;578;48.408;10.004;2024-01-30T10:08:06;4.90;99.90
1179;DHT22;578;48.408;10.004;2024-01-30T10:10:08;4.90;99.90
1179;DHT22;578;48.408;10.004;2024-01-30T10:12:10;4.90;99.90
1179;DHT22;578;48.408;10.004;2024-01-30T10:14:13;5.00;99.90
1179;DHT22;578;48.408;10.004;2024-01-30T10:16:15;4.90;99.90
1179;DHT22;578;48.408;10.004;2024-01-30T10:18:17;5.00;99.90
1179;DHT22;578;48.408;10.004;2024-01-30T10:20:19;5.10;99.90
1179;DHT22;578;48.408;10.004;2024-01-30T10:22:23;5.10;99.90
1179;DHT22;578;48.408;10.004;2024-01-30T10:24:25;5.20;99.90
1179;DHT22;578;48.408;10.004;2024-01-30T10:26:26;5.30;99.90
1179;DHT22;578;48.408;10.004;2024-01-30T10:28:30;5.40;99.90
1179;DHT22;578;48.408;10.004;2024-01-30T10:30:33;5.50;99.90
1179;DHT22;578;48.408;10.004;2024-01-30T10:32:35;5.50;99.90
1179;DHT22;578;48.408;10.004;2024-01-30T10:34:36;5.70;99.90
1179;DHT22;578;48.408;10.004;2024-01-30T10:36:40;5.80;99.90
1179;DHT22;578;48.408;10.004;2024-01-30T10:38:43;5.90;99.90
1179;DHT22;578;48.408;10.004;2024-01-30T10:40:48;6.00;99.90
1179;DHT22;578;48.408;10.004;2024-01-30T10:42:53;5.90;99.90
1179;DHT22;578;48.408;10.004;2024-01-30T10:45:02;5.90;99.90
1179;DHT22;578;48.408;10.004;2024-01-30T10:47:12;6.00;99.90
1179;DHT22;578;48.408;10.004;2024-01-30T10:49:15;6.00;99.90
1179;DHT22;578;48.408;10.004;2024-01-30T10:51:16;6.00;99.90
1179;DHT22;578;48.408;10.004;2024-01-30T10:53:20;6.00;99.90
1179;DHT22;578;48.408;10.004;2024-01-30T10:55:23;6.10;99.90
1179;DHT22;578;48.408;10.004;2024-01-30T10:57:25;6.10;99.90
1179;DHT22;578;48.408;10.004;2024-01-30T10:59:27;6.20;99.90
1179;DHT22;578;48.408;10.004;2024-01-30T11:01:29;6.20;99.90
1179;DHT22;578;48.408;10.004;2024-01-30T11:03:33;6.20;99.90
1179;DHT22;578;48.408;10.004;2024-01-30T11:05:40;6.30;99.90
1179;DHT22;578;48.408;10.004;2024-01-30T11:07:41;6.30;99.90
1179;DHT22;578;48.408;10.004;2024-01-30T11:09:49;6.30;99.90
1179;DHT22;578;48.408;10.004;2024-01-30T11:11:55;6.40;99.90
1179;DHT22;578;48.408;10.004;2024-01-30T11:14:01;6.50;99.90
1179;DHT22;578;48.408;10.004;2024-01-30T11:16:04;6.50;99.90
1179;DHT22;578;48.408;10.004;2024-01-30T11:18:06;6.50;99.90
1179;DHT22;578;48.408;10.004;2024-01-30T11:20:11;6.50;99.90
1179;DHT22;578;48.408;10.004;2024-01-30T11:22:14;6.70;99.90
1179;DHT22;578;48.408;10.004;2024-01-30T11:24:16;6.90;99.90
1179;DHT22;578;48.408;10.004;2024-01-30T11:26:18;7.00;99.90
1179;DHT22;578;48.408;10.004;2024-01-30T11:28:32;7.20;99.90
1179;DHT22;578;48.408;10.004;2024-01-30T11:30:34;7.20;99.90
1179;DHT22;578;48.408;10.004;2024-01-30T11:32:36;7.30;99.90
1179;DHT22;578;48.408;10.004;2024-01-30T11:34:41;7.20;99.90
1179;DHT22;578;48.408;10.004;2024-01-30T11:36:45;7.20;99.90
1179;DHT22;578;48.408;10.004;2024-01-30T11:38:51;7.30;99.90
1179;DHT22;578;48.408;10.004;2024-01-30T11:40:53;7.30;99.90
1179;DHT22;578;48.408;10.004;2024-01-30T11:42:55;7.20;99.90
1179;DHT22;578;48.408;10.004;2024-01-30T11:44:59;7.30;99.90
1179;DHT22;578;48.408;10.004;2024-01-30T11:47:01;7.20;99.90
1179;DHT22;578;48.408;10.004;2024-01-30T11:49:04;7.20;99.90
1179;DHT22;578;48.408;10.004;2024-01-30T11:51:06;7.20;99.90
1179;DHT22;578;48.408;10.004;2024-01-30T11:53:09;7.20;99.90
1179;DHT22;578;48.408;10.004;2024-01-30T11:55:12;7.30;99.90
1179;DHT22;578;48.408;10.004;2024-01-30T11:57:14;7.30;99.90
1179;DHT22;578;48.408;10.004;2024-01-30T11:59:16;7.40;99.90
1179;DHT22;578;48.408;10.004;2024-01-30T12:01:18;7.40;99.90
1179;DHT22;578;48.408;10.004;2024-01-30T12:03:20;7.50;99.90
1179;DHT22;578;48.408;10.004;2024-01-30T12:05:22;7.60;99.90
1179;DHT22;578;48.408;10.004;2024-01-30T12:07:23;7.60;99.90
1179;DHT22;578;48.408;10.004;2024-01-30T12:09:26;7.70;99.90
1179;DHT22;578;48.408;10.004;2024-01-30T12:11:28;7.60;99.90
1179;DHT22;578;48.408;10.004;2024-01-30T12:13:31;7.60;99.90
1179;DHT22;578;48.408;10.004;2024-01-30T12:15:33;7.70;99.90
1179;DHT22;578;48.408;10.004;2024-01-30T12:17:35;7.80;99.90
1179;DHT22;578;48.408;10.004;2024-01-30T12:19:37;7.90;99.90
1179;DHT22;578;48.408;10.004;2024-01-30T12:21:38;8.00;99.90
1179;DHT22;578;48.408;10.004;2024-01-30T12:23:40;8.10;99.90
1179;DHT22;578;48.408;10.004;2024-01-30T12:25:42;8.10;99.90
1179;DHT22;578;48.408;10.004;2024-01-30T12:27:45;8.20;99.90
1179;DHT22;578;48.408;10.004;2024-01-30T12:29:55;8.20;99.90
1179;DHT22;578;48.408;10.004;2024-01-30T12:31:56;8.30;99.90
1179;DHT22;578;48.408;10.004;2024-01-30T12:33:59;8.40;99.90
1179;DHT22;578;48.408;10.004;2024-01-30T12:36:02;8.30;99.90
1179;DHT22;578;48.408;10.004;2024-01-30T12:38:04;8.40;99.90
1179;DHT22;578;48.408;10.004;2024-01-30T12:40:07;8.40;99.90
1179;DHT22;578;48.408;10.004;2024-01-30T12:42:11;8.50;99.90
1179;DHT22;578;48.408;10.004;2024-01-30T12:44:14;8.50;99.90
1179;DHT22;578;48.408;10.004;2024-01-30T12:46:17;8.50;99.90
1179;DHT22;578;48.408;10.004;2024-01-30T12:48:18;8.40;99.90
1179;DHT22;578;48.408;10.004;2024-01-30T12:50:20;8.40;99.90
1179;DHT22;578;48.408;10.004;2024-01-30T12:52:23;8.40;99.90
1179;DHT22;578;48.408;10.004;2024-01-30T12:54:24;8.40;99.90
1179;DHT22;578;48.408;10.004;2024-01-30T12:56:26;8.40;99.90
1179;DHT22;578;48.408;10.004;2024-01-30T12:58:29;8.50;99.90
1179;DHT22;578;48.408;10.004;2024-01-30T13:00:30;8.50;99.90
1179;DHT22;578;48.408;10.004;2024-01-30T13:02:32;8.50;99.90
1179;DHT22;578;48.408;10.004;2024-01-30T13:04:37;8.60;99.90
1179;DHT22;578;48.408;10.004;2024-01-30T13:06:38;8.60;99.90
1179;DHT22;578;48.408;10.004;2024-01-30T13:08:40;8.70;99.90
1179;DHT22;578;48.408;10.004;2024-01-30T13:10:42;8.70;99.90
1179;DHT22;578;48.408;10.004;2024-01-30T13:12:44;8.70;99.90
1179;DHT22;578;48.408;10.004;2024-01-30T13:14:47;8.80;99.90
1179;DHT22;578;48.408;10.004;2024-01-30T13:16:48;8.70;99.90
1179;DHT22;578;48.408;10.004;2024-01-30T13:18:51;8.70;99.90
1179;DHT22;578;48.408;10.004;2024-01-30T13:20:54;8.80;99.90
1179;DHT22;578;48.408;10.004;2024-01-30T13:22:55;8.80;99.90